Argenta, Texas
Current Conditions -  °F | °C
As of 6:35 PM on Saturday 25 Oct 2014 (Local Time) from KRBO Reporting Station
Heavy Rain Heavy Rain  
Wind Chill: 80°   Ceiling: Unl
Heat Index: 82°   Visibility: 7mi
Dew Point: 64°   Wind: 10mph
Humidity: 57%   Direction: 120°ESE
Pressure: 30.09"   Gusts: NA
Location:  28.0654°N, 97.7489°W
Report Text: KRBO 252335Z AUTO 12009KT 7SM +RA CLR 27/18 A3009 RMK AO2 T02690176
Loading
Personal Weather Stations






























Interactive Weather Map
Tropical Storm Tracking
New forecast layout! Learn more

10-Day Weather Forecast

Advertisements
Track Severe Weather on mobile